createdAt,value
2018-07-08T00:00:30.361Z,93.20
2018-07-08T00:02:57.580Z,93.60
2018-07-08T00:05:24.451Z,93.70
2018-07-08T00:07:51.393Z,94.10
2018-07-08T00:10:18.275Z,94.90
2018-07-08T00:12:45.190Z,95.30
2018-07-08T00:15:12.067Z,95.70
2018-07-08T00:17:38.991Z,96.20
2018-07-08T00:20:06.006Z,96.70
2018-07-08T00:22:32.879Z,97.30
2018-07-08T00:24:59.963Z,97.80
2018-07-08T00:27:26.837Z,98.00
2018-07-08T00:29:53.731Z,98.50
2018-07-08T00:32:20.632Z,99.40
2018-07-08T00:34:47.531Z,99.70
2018-07-08T00:37:14.404Z,99.90
2018-07-08T00:39:41.639Z,99.90
2018-07-08T00:42:08.500Z,99.90
2018-07-08T00:44:35.395Z,99.90
2018-07-08T00:47:02.263Z,99.90
2018-07-08T00:49:29.193Z,99.90
2018-07-08T00:51:56.067Z,99.90
2018-07-08T00:54:22.963Z,99.90
2018-07-08T00:56:49.840Z,99.90
2018-07-08T01:01:43.938Z,99.90
2018-07-08T01:04:11.598Z,99.90
2018-07-08T01:06:38.536Z,99.90
2018-07-08T01:09:05.440Z,99.90
2018-07-08T01:11:32.322Z,99.90
2018-07-08T01:13:59.228Z,99.90
2018-07-08T01:16:26.108Z,99.90
2018-07-08T01:18:53.251Z,99.90
2018-07-08T01:21:20.125Z,99.90
2018-07-08T01:23:47.027Z,99.90
2018-07-08T01:26:14.052Z,99.90
2018-07-08T01:28:41.636Z,99.90
2018-07-08T01:31:09.583Z,99.90
2018-07-08T01:33:36.652Z,99.90
2018-07-08T01:36:03.538Z,99.90
2018-07-08T01:38:30.419Z,99.90
2018-07-08T01:40:57.591Z,99.90
2018-07-08T01:43:24.872Z,99.90
2018-07-08T01:45:51.752Z,99.90
2018-07-08T01:48:18.628Z,99.90
2018-07-08T01:50:45.528Z,99.90
2018-07-08T01:53:12.747Z,99.90
2018-07-08T01:55:39.628Z,99.90
2018-07-08T01:58:06.535Z,99.90
2018-07-08T02:00:33.423Z,99.90
2018-07-08T02:03:00.328Z,99.90
2018-07-08T02:05:27.203Z,99.90
2018-07-08T02:07:54.129Z,99.90
2018-07-08T02:10:21.011Z,99.90
2018-07-08T02:12:47.888Z,99.90
2018-07-08T02:15:14.791Z,99.90
2018-07-08T02:17:42.073Z,99.90
2018-07-08T02:20:09.004Z,99.90
2018-07-08T02:22:35.883Z,99.90
2018-07-08T02:25:02.796Z,99.90
2018-07-08T02:27:29.685Z,99.90
2018-07-08T02:29:56.608Z,99.90
2018-07-08T02:32:23.508Z,99.90
2018-07-08T02:34:50.424Z,99.90
2018-07-08T02:37:17.303Z,99.90
2018-07-08T02:39:44.263Z,99.90
2018-07-08T02:42:11.155Z,99.90
2018-07-08T02:44:38.080Z,99.90
2018-07-08T02:47:04.952Z,99.90
2018-07-08T02:49:31.864Z,99.90
2018-07-08T02:51:58.747Z,99.90
2018-07-08T02:54:25.652Z,99.90
2018-07-08T02:56:52.808Z,99.90
2018-07-08T02:59:19.988Z,99.90
2018-07-08T03:01:46.927Z,99.90
2018-07-08T03:04:13.787Z,99.90
2018-07-08T03:06:40.666Z,99.90
2018-07-08T03:09:08.563Z,99.90
2018-07-08T03:11:35.440Z,99.90
2018-07-08T03:14:02.342Z,99.90
2018-07-08T03:16:29.221Z,99.90
2018-07-08T03:18:56.255Z,99.90
2018-07-08T03:21:23.125Z,99.90
2018-07-08T03:23:50.063Z,99.90
2018-07-08T03:26:16.959Z,99.90
2018-07-08T03:28:43.953Z,99.90
2018-07-08T03:31:10.856Z,99.90
2018-07-08T03:33:37.731Z,99.90
2018-07-08T03:36:04.643Z,99.90
2018-07-08T03:38:31.520Z,99.90
2018-07-08T03:40:58.426Z,99.90
2018-07-08T03:43:25.308Z,99.90
2018-07-08T03:45:52.426Z,99.90
2018-07-08T03:48:19.295Z,99.90
2018-07-08T03:50:46.172Z,99.90
2018-07-08T03:53:13.099Z,99.90
2018-07-08T03:55:39.972Z,99.90
2018-07-08T03:58:06.855Z,99.90
2018-07-08T04:00:33.727Z,99.90
2018-07-08T04:03:00.631Z,99.90
2018-07-08T04:05:27.528Z,99.90
2018-07-08T04:07:54.423Z,99.90
2018-07-08T04:10:21.588Z,99.90
2018-07-08T04:12:48.819Z,99.90
2018-07-08T04:15:15.811Z,99.90
2018-07-08T04:17:42.703Z,99.90
2018-07-08T04:20:09.859Z,99.90
2018-07-08T04:22:36.757Z,99.90
2018-07-08T04:25:03.636Z,99.90
2018-07-08T04:27:30.527Z,99.90
2018-07-08T04:29:57.439Z,99.90
2018-07-08T04:32:24.336Z,99.90
2018-07-08T04:34:51.216Z,99.90
2018-07-08T04:37:18.115Z,99.90
2018-07-08T04:39:45.331Z,99.90
2018-07-08T04:42:12.231Z,99.90
2018-07-08T04:44:39.102Z,99.90
2018-07-08T04:47:05.987Z,99.90
2018-07-08T04:49:32.879Z,99.90
2018-07-08T04:51:59.748Z,99.90
2018-07-08T04:54:26.648Z,99.90
2018-07-08T04:56:53.519Z,99.90
2018-07-08T04:59:20.419Z,99.90
2018-07-08T05:01:47.295Z,99.90
2018-07-08T05:06:41.344Z,99.90
2018-07-08T05:09:08.237Z,99.90
2018-07-08T05:14:02.004Z,99.90
2018-07-08T05:16:28.871Z,99.90
2018-07-08T05:18:55.762Z,99.90
2018-07-08T05:21:22.627Z,99.90
2018-07-08T05:23:49.519Z,99.90
2018-07-08T05:26:16.683Z,99.90
2018-07-08T05:28:43.579Z,99.90
2018-07-08T05:31:10.471Z,99.90
2018-07-08T05:33:37.375Z,99.90
2018-07-08T05:38:31.217Z,99.90
2018-07-08T05:40:58.076Z,99.90
2018-07-08T05:43:25.027Z,99.90
2018-07-08T05:45:51.903Z,99.90
2018-07-08T05:48:19.107Z,99.90
2018-07-08T05:50:45.987Z,99.90
2018-07-08T05:53:13.667Z,99.90
2018-07-08T05:55:40.560Z,99.90
2018-07-08T05:58:07.608Z,99.90
2018-07-08T06:00:34.516Z,99.90
2018-07-08T06:03:01.712Z,99.90
2018-07-08T06:05:28.617Z,99.90
2018-07-08T06:07:55.496Z,99.90
2018-07-08T06:10:22.392Z,99.90
2018-07-08T06:12:49.263Z,99.90
2018-07-08T06:15:16.208Z,99.90
2018-07-08T06:17:43.067Z,99.90
2018-07-08T06:20:11.085Z,99.90
2018-07-08T06:22:38.283Z,99.90
2018-07-08T06:25:05.451Z,99.90
2018-07-08T06:27:32.327Z,99.90
2018-07-08T06:29:59.249Z,99.90
2018-07-08T06:32:26.141Z,99.90
2018-07-08T06:34:53.048Z,99.90
2018-07-08T06:37:19.920Z,99.90
2018-07-08T06:39:46.816Z,99.90
2018-07-08T06:42:13.972Z,99.80
2018-07-08T06:44:40.871Z,99.00
2018-07-08T06:49:34.660Z,96.50
2018-07-08T06:52:01.567Z,94.70
2018-07-08T06:54:28.780Z,93.80
2018-07-08T06:56:55.648Z,92.50
2018-07-08T06:59:22.552Z,91.30
2018-07-08T07:01:49.427Z,90.20
2018-07-08T07:04:16.815Z,88.10
2018-07-08T07:06:43.733Z,86.10
2018-07-08T07:09:11.099Z,87.60
2018-07-08T07:11:38.336Z,86.70
2018-07-08T07:14:05.235Z,87.30
2018-07-08T07:16:32.113Z,85.60
2018-07-08T07:18:59.016Z,86.20
2018-07-08T07:21:25.888Z,86.00
2018-07-08T07:23:52.799Z,84.80
2018-07-08T07:26:20.019Z,81.90
2018-07-08T07:28:46.919Z,81.70
2018-07-08T07:31:13.835Z,82.50
2018-07-08T07:33:40.711Z,84.80
2018-07-08T07:36:07.617Z,85.10
2018-07-08T07:38:34.492Z,85.30
2018-07-08T07:41:01.386Z,82.70
2018-07-08T07:43:28.261Z,82.20
2018-07-08T07:45:55.160Z,82.90
2018-07-08T07:48:22.040Z,82.60
2018-07-08T07:50:48.932Z,82.40
2018-07-08T07:53:15.807Z,82.50
2018-07-08T07:55:42.706Z,82.00
2018-07-08T07:58:09.579Z,81.50
2018-07-08T08:00:36.475Z,80.10
2018-07-08T08:03:03.367Z,79.80
2018-07-08T08:05:30.275Z,79.60
2018-07-08T08:07:57.463Z,81.10
2018-07-08T08:10:24.471Z,80.00
2018-07-08T08:12:51.347Z,78.60
2018-07-08T08:15:18.503Z,76.70
2018-07-08T08:17:45.547Z,76.30
2018-07-08T08:20:12.444Z,74.70
2018-07-08T08:22:40.008Z,74.50
2018-07-08T08:25:07.372Z,73.30
2018-07-08T08:27:34.424Z,72.80
2018-07-08T08:30:01.468Z,73.70
2018-07-08T08:32:28.579Z,71.80
2018-07-08T08:34:59.842Z,71.50
2018-07-08T08:37:58.142Z,70.60
2018-07-08T08:40:26.486Z,71.10
2018-07-08T08:42:54.055Z,69.70
2018-07-08T08:45:22.112Z,68.60
2018-07-08T08:47:49.019Z,69.60
2018-07-08T08:50:16.168Z,68.60
2018-07-08T08:52:43.084Z,67.00
2018-07-08T08:55:10.815Z,68.50
2018-07-08T08:57:38.201Z,67.70
2018-07-08T09:00:10.028Z,67.30
2018-07-08T09:02:37.088Z,66.10
2018-07-08T09:05:03.960Z,66.50
2018-07-08T09:07:30.837Z,69.10
2018-07-08T09:09:57.737Z,68.70
2018-07-08T09:12:24.672Z,68.80
2018-07-08T09:14:51.551Z,68.30
2018-07-08T09:19:45.640Z,69.00
2018-07-08T09:22:12.515Z,68.60
2018-07-08T09:24:39.421Z,68.70
2018-07-08T09:27:06.552Z,68.00
2018-07-08T09:29:33.472Z,68.60
2018-07-08T09:32:00.352Z,66.10
2018-07-08T09:34:27.240Z,63.70
2018-07-08T09:39:21.125Z,65.50
2018-07-08T09:41:48.011Z,65.60
2018-07-08T09:44:15.796Z,64.60
2018-07-08T09:46:43.735Z,65.00
2018-07-08T09:49:10.909Z,64.50
2018-07-08T09:51:37.790Z,64.40
2018-07-08T09:54:04.800Z,63.90
2018-07-08T09:56:31.711Z,65.90
2018-07-08T09:58:58.899Z,65.30
2018-07-08T10:01:26.024Z,65.10
2018-07-08T10:03:52.943Z,63.00
2018-07-08T10:06:19.837Z,61.30
2018-07-08T10:08:46.834Z,61.10
2018-07-08T10:11:13.648Z,60.00
2018-07-08T10:13:40.578Z,59.70
2018-07-08T10:16:07.903Z,58.80
2018-07-08T10:18:34.795Z,56.70
2018-07-08T10:21:01.740Z,57.10
2018-07-08T10:23:28.611Z,57.10
2018-07-08T10:25:55.499Z,57.30
2018-07-08T10:28:23.354Z,56.90
2018-07-08T10:30:50.627Z,54.30
2018-07-08T10:33:17.520Z,53.30
2018-07-08T10:35:47.680Z,51.20
2018-07-08T10:38:14.568Z,49.90
2018-07-08T10:40:41.481Z,48.60
2018-07-08T10:43:08.356Z,48.60
2018-07-08T10:45:35.256Z,47.60
2018-07-08T10:48:02.152Z,48.30
2018-07-08T10:50:29.071Z,48.80
2018-07-08T10:52:55.935Z,48.70
2018-07-08T10:55:22.877Z,48.90
2018-07-08T10:57:49.743Z,50.00
2018-07-08T11:00:16.675Z,48.70
2018-07-08T11:02:43.552Z,47.30
2018-07-08T11:05:10.455Z,47.20
2018-07-08T11:07:37.559Z,46.90
2018-07-08T11:10:04.455Z,46.30
2018-07-08T11:12:31.672Z,46.60
2018-07-08T11:14:58.567Z,45.80
2018-07-08T11:17:25.435Z,45.10
2018-07-08T11:19:52.307Z,45.90
2018-07-08T11:22:19.210Z,49.50
2018-07-08T11:24:46.088Z,50.50
2018-07-08T11:27:12.983Z,50.40
2018-07-08T11:29:39.871Z,49.00
2018-07-08T11:32:07.035Z,50.20
2018-07-08T11:34:33.907Z,51.40
2018-07-08T11:37:00.815Z,50.30
2018-07-08T11:39:27.688Z,51.50
2018-07-08T11:41:54.587Z,52.30
2018-07-08T11:44:21.460Z,54.40
2018-07-08T11:46:48.351Z,56.20
2018-07-08T11:49:15.240Z,57.50
2018-07-08T11:51:42.135Z,56.60
2018-07-08T11:54:09.023Z,53.60
2018-07-08T11:56:35.940Z,53.10
2018-07-08T11:59:02.811Z,53.30
2018-07-08T12:01:29.711Z,54.10
2018-07-08T12:03:56.596Z,55.90
2018-07-08T12:06:23.512Z,55.70
2018-07-08T12:08:50.426Z,53.50
2018-07-08T12:11:17.324Z,51.20
2018-07-08T12:13:44.191Z,49.10
2018-07-08T12:16:11.084Z,49.10
2018-07-08T12:21:04.943Z,48.40
2018-07-08T12:23:31.753Z,48.30
2018-07-08T12:25:59.000Z,48.60
2018-07-08T12:28:25.868Z,49.30
2018-07-08T12:30:52.788Z,49.30
2018-07-08T12:33:19.959Z,49.50
2018-07-08T12:35:46.852Z,48.00
2018-07-08T12:38:13.724Z,47.60
2018-07-08T12:40:40.614Z,46.70
2018-07-08T12:43:07.483Z,46.40
2018-07-08T12:45:34.384Z,45.70
2018-07-08T12:48:01.248Z,45.40
2018-07-08T12:50:28.128Z,44.80
2018-07-08T12:52:55.127Z,44.10
2018-07-08T12:55:22.004Z,44.80
2018-07-08T12:57:48.894Z,45.90
2018-07-08T13:00:15.767Z,46.50
2018-07-08T13:02:42.669Z,46.10
2018-07-08T13:05:09.549Z,46.60
2018-07-08T13:07:36.463Z,47.80
2018-07-08T13:10:03.331Z,50.00
2018-07-08T13:12:30.242Z,50.70
2018-07-08T13:14:57.113Z,51.10
2018-07-08T13:17:24.009Z,49.60
2018-07-08T13:22:17.807Z,47.40
2018-07-08T13:24:44.980Z,47.10
2018-07-08T13:27:12.547Z,47.00
2018-07-08T13:29:39.427Z,45.90
2018-07-08T13:32:06.329Z,45.40
2018-07-08T13:34:33.242Z,45.60
2018-07-08T13:37:00.107Z,44.90
2018-07-08T13:39:26.999Z,44.90
2018-07-08T13:41:53.881Z,45.90
2018-07-08T13:44:20.776Z,47.60
2018-07-08T13:46:47.651Z,49.30
2018-07-08T13:49:14.847Z,51.50
2018-07-08T13:51:41.715Z,51.70
2018-07-08T13:54:08.607Z,52.20
2018-07-08T13:59:02.396Z,50.70
2018-07-08T14:01:29.268Z,51.30
2018-07-08T14:03:56.158Z,52.30
2018-07-08T14:06:23.164Z,53.30
2018-07-08T14:08:50.354Z,53.80
2018-07-08T14:11:17.223Z,55.00
2018-07-08T14:13:44.123Z,55.60
2018-07-08T14:16:11.000Z,55.70
2018-07-08T14:18:37.887Z,56.10
2018-07-08T14:21:04.820Z,57.10
2018-07-08T14:23:31.705Z,54.60
2018-07-08T14:25:58.584Z,53.40
2018-07-08T14:28:26.531Z,52.60
2018-07-08T14:30:53.436Z,53.90
2018-07-08T14:33:20.328Z,53.80
2018-07-08T14:35:47.215Z,53.30
2018-07-08T14:38:14.111Z,54.40
2018-07-08T14:40:41.052Z,55.00
2018-07-08T14:43:07.934Z,54.70
2018-07-08T14:45:34.818Z,54.10
2018-07-08T14:48:01.959Z,53.60
2018-07-08T14:50:28.859Z,53.60
2018-07-08T14:52:55.736Z,53.80
2018-07-08T14:55:22.636Z,53.90
2018-07-08T14:57:49.515Z,51.70
2018-07-08T15:00:16.419Z,50.20
2018-07-08T15:02:43.295Z,50.20
2018-07-08T15:05:10.192Z,51.80
2018-07-08T15:07:37.059Z,51.60
2018-07-08T15:10:03.958Z,51.20
2018-07-08T15:12:30.850Z,50.20
2018-07-08T15:14:57.732Z,50.80
2018-07-08T15:17:24.632Z,52.00
2018-07-08T15:19:51.524Z,52.30
2018-07-08T15:22:18.488Z,52.10
2018-07-08T15:24:45.359Z,51.50
2018-07-08T15:27:12.266Z,51.10
2018-07-08T15:29:39.154Z,50.90
2018-07-08T15:32:06.495Z,51.90
2018-07-08T15:34:33.619Z,52.40
2018-07-08T15:37:00.499Z,53.30
2018-07-08T15:39:27.428Z,54.50
2018-07-08T15:41:54.310Z,54.90
2018-07-08T15:44:21.315Z,56.10
2018-07-08T15:46:48.204Z,56.80
2018-07-08T15:49:15.104Z,57.90
2018-07-08T15:51:41.985Z,58.90
2018-07-08T15:54:08.897Z,59.60
2018-07-08T15:56:36.020Z,60.00
2018-07-08T15:59:02.915Z,60.00
2018-07-08T16:01:29.798Z,60.50
2018-07-08T16:03:56.707Z,60.20
2018-07-08T16:06:23.588Z,59.00
2018-07-08T16:08:50.468Z,58.70
2018-07-08T16:11:17.363Z,57.90
2018-07-08T16:16:11.131Z,57.20
2018-07-08T16:18:38.369Z,56.40
2018-07-08T16:21:05.183Z,56.10
2018-07-08T16:23:32.231Z,56.10
2018-07-08T16:25:59.235Z,56.20
2018-07-08T16:28:26.131Z,56.30
2018-07-08T16:30:53.091Z,57.00
2018-07-08T16:33:19.963Z,58.70
2018-07-08T16:35:51.223Z,59.30
2018-07-08T16:38:18.133Z,59.90
2018-07-08T16:40:45.031Z,60.70
2018-07-08T16:43:12.304Z,60.40
2018-07-08T16:45:39.223Z,60.90
2018-07-08T16:48:06.411Z,61.40
2018-07-08T16:50:33.312Z,61.50
2018-07-08T16:53:00.193Z,61.80
2018-07-08T16:55:27.107Z,61.70
2018-07-08T16:57:53.996Z,62.80
2018-07-08T17:00:20.898Z,63.00
2018-07-08T17:02:47.859Z,63.20
2018-07-08T17:05:14.758Z,63.30
2018-07-08T17:07:41.637Z,62.90
2018-07-08T17:10:08.509Z,63.30
2018-07-08T17:12:35.407Z,63.90
2018-07-08T17:15:02.287Z,64.20
2018-07-08T17:17:29.436Z,63.70
2018-07-08T17:19:56.319Z,63.50
2018-07-08T17:22:23.227Z,64.00
2018-07-08T17:24:50.118Z,64.00
2018-07-08T17:27:17.028Z,64.20
2018-07-08T17:29:43.919Z,64.50
2018-07-08T17:32:10.844Z,64.70
2018-07-08T17:34:37.722Z,64.90
2018-07-08T17:37:04.612Z,64.90
2018-07-08T17:39:31.549Z,65.30
2018-07-08T17:41:58.739Z,65.40
2018-07-08T17:44:25.613Z,65.80
2018-07-08T17:46:52.895Z,66.30
2018-07-08T17:49:19.775Z,66.80
2018-07-08T17:51:46.668Z,66.70
2018-07-08T17:54:13.547Z,67.20
2018-07-08T17:56:40.443Z,67.50
2018-07-08T17:59:07.729Z,67.80
2018-07-08T18:01:34.640Z,67.80
2018-07-08T18:04:01.514Z,67.80
2018-07-08T18:06:28.567Z,67.70
2018-07-08T18:08:55.482Z,68.00
2018-07-08T18:11:22.356Z,68.00
2018-07-08T18:13:49.248Z,68.30
2018-07-08T18:16:16.148Z,68.70
2018-07-08T18:18:43.020Z,69.40
2018-07-08T18:21:09.920Z,69.20
2018-07-08T18:23:36.802Z,69.50
2018-07-08T18:26:03.824Z,69.70
2018-07-08T18:28:30.695Z,69.90
2018-07-08T18:30:57.599Z,70.20
2018-07-08T18:33:24.541Z,70.50
2018-07-08T18:35:51.403Z,70.80
2018-07-08T18:38:18.299Z,70.80
2018-07-08T18:40:45.200Z,71.10
2018-07-08T18:43:12.087Z,71.70
2018-07-08T18:45:38.961Z,71.80
2018-07-08T18:48:05.854Z,72.50
2018-07-08T18:50:32.866Z,72.30
2018-07-08T18:53:00.061Z,72.70
2018-07-08T18:55:26.935Z,72.90
2018-07-08T18:57:53.833Z,73.20
2018-07-08T19:00:20.711Z,73.60
2018-07-08T19:02:47.648Z,74.00
2018-07-08T19:05:14.768Z,74.20
2018-07-08T19:07:41.695Z,74.60
2018-07-08T19:10:08.739Z,74.80
2018-07-08T19:12:35.721Z,75.20
2018-07-08T19:15:02.568Z,75.50
2018-07-08T19:17:29.476Z,75.80
2018-07-08T19:19:56.375Z,76.10
2018-07-08T19:22:23.249Z,76.20
2018-07-08T19:24:50.175Z,76.70
2018-07-08T19:27:17.051Z,77.30
2018-07-08T19:29:43.976Z,77.50
2018-07-08T19:32:10.860Z,77.90
2018-07-08T19:34:37.764Z,78.20
2018-07-08T19:37:04.671Z,78.50
2018-07-08T19:39:31.584Z,78.80
2018-07-08T19:41:58.455Z,79.40
2018-07-08T19:44:25.667Z,79.80
2018-07-08T19:46:52.556Z,80.20
2018-07-08T19:49:19.472Z,80.70
2018-07-08T19:51:46.356Z,81.20
2018-07-08T19:54:13.259Z,81.50
2018-07-08T19:56:40.140Z,81.90
2018-07-08T19:59:07.340Z,82.50
2018-07-08T20:01:34.495Z,82.90
2018-07-08T20:04:01.400Z,83.20
2018-07-08T20:06:28.276Z,83.70
2018-07-08T20:08:55.208Z,84.40
2018-07-08T20:11:22.290Z,84.70
2018-07-08T20:13:49.147Z,84.70
2018-07-08T20:16:16.025Z,84.90
2018-07-08T20:18:42.927Z,84.80
2018-07-08T20:21:09.843Z,85.50
2018-07-08T20:23:36.931Z,85.00
2018-07-08T20:26:03.830Z,85.00
2018-07-08T20:28:30.755Z,84.90
2018-07-08T20:30:57.652Z,84.90
2018-07-08T20:33:24.527Z,84.80
2018-07-08T20:35:51.490Z,84.80
2018-07-08T20:38:18.377Z,84.90
2018-07-08T20:40:45.255Z,84.80
2018-07-08T20:43:12.211Z,84.80
2018-07-08T20:45:39.091Z,84.60
2018-07-08T20:48:06.031Z,84.50
2018-07-08T20:50:32.924Z,84.40
2018-07-08T20:53:00.171Z,84.40
2018-07-08T20:55:27.066Z,84.40
2018-07-08T20:57:53.939Z,84.20
2018-07-08T21:00:20.828Z,83.80
2018-07-08T21:02:47.693Z,83.70
2018-07-08T21:05:14.611Z,83.50
2018-07-08T21:07:41.816Z,83.10
2018-07-08T21:10:08.801Z,82.70
2018-07-08T21:12:35.674Z,82.70
2018-07-08T21:17:29.974Z,82.20
2018-07-08T21:19:57.029Z,82.00
2018-07-08T21:22:23.906Z,81.90
2018-07-08T21:24:50.825Z,82.00
2018-07-08T21:27:17.715Z,81.90
2018-07-08T21:29:44.637Z,81.70
2018-07-08T21:32:11.517Z,81.60
2018-07-08T21:34:38.420Z,81.70
2018-07-08T21:37:05.293Z,81.70
2018-07-08T21:39:32.435Z,81.60
2018-07-08T21:41:59.312Z,81.50
2018-07-08T21:44:26.511Z,81.60
2018-07-08T21:46:53.407Z,81.50
2018-07-08T21:49:20.324Z,81.30
2018-07-08T21:51:47.199Z,81.30
2018-07-08T21:54:14.076Z,81.30
2018-07-08T21:56:40.975Z,81.40
2018-07-08T21:59:08.124Z,81.40
2018-07-08T22:01:40.860Z,81.30
2018-07-08T22:04:07.735Z,81.40
2018-07-08T22:06:34.983Z,81.70
2018-07-08T22:09:01.864Z,81.80
2018-07-08T22:11:28.764Z,82.10
2018-07-08T22:13:55.644Z,82.30
2018-07-08T22:16:22.548Z,82.40
2018-07-08T22:18:49.425Z,82.70
2018-07-08T22:21:16.328Z,82.90
2018-07-08T22:23:43.207Z,83.30
2018-07-08T22:26:10.112Z,83.40
2018-07-08T22:28:37.523Z,83.70
2018-07-08T22:31:04.440Z,84.00
2018-07-08T22:33:31.316Z,84.40
2018-07-08T22:35:58.225Z,84.80
2018-07-08T22:38:25.107Z,85.10
2018-07-08T22:40:52.027Z,85.70
2018-07-08T22:43:18.902Z,86.10
2018-07-08T22:45:45.775Z,86.40
2018-07-08T22:48:12.674Z,87.00
2018-07-08T22:50:39.544Z,87.40
2018-07-08T22:53:06.743Z,87.60
2018-07-08T22:55:33.620Z,88.10
2018-07-08T22:58:00.604Z,88.50
2018-07-08T23:00:33.287Z,89.00
2018-07-08T23:04:05.611Z,89.20
2018-07-08T23:06:32.927Z,89.90
2018-07-08T23:08:59.799Z,90.20
2018-07-08T23:11:27.387Z,90.50
2018-07-08T23:13:55.232Z,90.70
2018-07-08T23:16:22.720Z,91.00
2018-07-08T23:18:49.727Z,91.30
2018-07-08T23:21:16.653Z,91.50
2018-07-08T23:23:43.541Z,91.80
2018-07-08T23:26:10.443Z,92.10
2018-07-08T23:28:37.718Z,92.20
2018-07-08T23:31:05.203Z,92.50
2018-07-08T23:33:32.084Z,92.80
2018-07-08T23:36:00.083Z,93.10
2018-07-08T23:38:27.139Z,93.40
2018-07-08T23:40:54.311Z,93.70
2018-07-08T23:43:21.199Z,93.90
2018-07-08T23:45:48.263Z,94.10
2018-07-08T23:48:15.144Z,94.40
2018-07-08T23:50:42.011Z,94.60
2018-07-08T23:53:08.899Z,94.90
2018-07-08T23:55:35.793Z,95.20
2018-07-08T23:58:02.691Z,95.50
